createdAt,value
2019-02-11T00:00:25.953Z,83.79
2019-02-11T00:02:54.982Z,84.22
2019-02-11T00:05:24.347Z,83.86
2019-02-11T00:07:53.423Z,83.78
2019-02-11T00:10:22.432Z,83.61
2019-02-11T00:12:51.445Z,83.20
2019-02-11T00:15:20.460Z,83.42
2019-02-11T00:17:49.674Z,83.69
2019-02-11T00:20:18.797Z,84.12
2019-02-11T00:22:47.803Z,83.58
2019-02-11T00:25:17.556Z,83.78
2019-02-11T00:27:46.575Z,83.35
2019-02-11T00:30:15.584Z,83.68
2019-02-11T00:32:44.622Z,82.97
2019-02-11T00:35:13.658Z,82.83
2019-02-11T00:37:43.228Z,82.96
2019-02-11T00:40:12.222Z,83.94
2019-02-11T00:42:41.262Z,84.02
2019-02-11T00:45:10.592Z,84.29
2019-02-11T00:47:39.624Z,83.95
2019-02-11T00:50:09.970Z,83.24
2019-02-11T00:52:38.969Z,83.39
2019-02-11T00:55:08.049Z,83.52
2019-02-11T00:57:37.062Z,83.78
2019-02-11T01:00:07.927Z,82.62
2019-02-11T01:02:37.260Z,83.32
2019-02-11T01:05:06.826Z,83.52
2019-02-11T01:07:35.848Z,82.56
2019-02-11T01:10:06.107Z,83.14
2019-02-11T01:12:35.206Z,82.44
2019-02-11T01:15:05.800Z,82.57
2019-02-11T01:17:35.528Z,82.14
2019-02-11T01:20:05.228Z,82.49
2019-02-11T01:22:34.239Z,82.49
2019-02-11T01:25:03.590Z,82.91
2019-02-11T01:27:32.988Z,82.83
2019-02-11T01:30:02.692Z,82.39
2019-02-11T01:32:31.846Z,82.60
2019-02-11T01:35:01.206Z,83.20
2019-02-11T01:37:30.353Z,83.40
2019-02-11T01:39:59.704Z,83.40
2019-02-11T01:42:28.780Z,83.67
2019-02-11T01:44:57.796Z,83.90
2019-02-11T01:47:28.120Z,84.02
2019-02-11T01:49:57.507Z,84.50
2019-02-11T01:52:26.502Z,84.88
2019-02-11T01:54:55.844Z,84.16
2019-02-11T01:57:24.862Z,85.66
2019-02-11T01:59:53.846Z,84.67
2019-02-11T02:02:22.834Z,85.32
2019-02-11T02:04:52.404Z,84.80
2019-02-11T02:07:21.655Z,84.97
2019-02-11T02:09:50.732Z,85.08
2019-02-11T02:12:19.764Z,84.63
2019-02-11T02:14:48.765Z,84.46
2019-02-11T02:17:17.747Z,84.93
2019-02-11T02:19:46.763Z,85.18
2019-02-11T02:22:15.754Z,85.99
2019-02-11T02:24:45.106Z,85.28
2019-02-11T02:27:14.109Z,85.15
2019-02-11T02:29:43.176Z,85.09
2019-02-11T02:32:12.450Z,85.08
2019-02-11T02:34:41.570Z,85.80
2019-02-11T02:37:10.634Z,85.71
2019-02-11T02:39:39.684Z,86.27
2019-02-11T02:42:08.726Z,86.18
2019-02-11T02:44:37.866Z,85.70
2019-02-11T02:47:07.350Z,86.13
2019-02-11T02:49:36.821Z,85.79
2019-02-11T02:52:05.862Z,87.15
2019-02-11T02:54:35.152Z,86.67
2019-02-11T02:57:04.225Z,86.57
2019-02-11T02:59:33.922Z,87.06
2019-02-11T03:02:03.242Z,87.36
2019-02-11T03:04:32.633Z,86.97
2019-02-11T03:07:02.039Z,87.35
2019-02-11T03:09:31.464Z,87.27
2019-02-11T03:12:00.534Z,87.92
2019-02-11T03:14:29.524Z,88.33
2019-02-11T03:16:58.769Z,88.31
2019-02-11T03:19:28.866Z,88.79
2019-02-11T03:21:58.032Z,88.36
2019-02-11T03:24:27.044Z,88.31
2019-02-11T03:26:56.095Z,88.45
2019-02-11T03:29:25.577Z,88.61
2019-02-11T03:31:54.902Z,88.47
2019-02-11T03:34:24.275Z,88.00
2019-02-11T03:36:53.342Z,88.31
2019-02-11T03:39:22.425Z,89.30
2019-02-11T03:41:51.432Z,88.87
2019-02-11T03:44:20.516Z,88.70
2019-02-11T03:46:49.863Z,89.17
2019-02-11T03:49:18.989Z,88.91
2019-02-11T03:51:47.990Z,89.17
2019-02-11T03:54:17.055Z,89.39
2019-02-11T03:56:46.142Z,89.49
2019-02-11T03:59:15.355Z,89.54
2019-02-11T04:01:44.743Z,89.83
2019-02-11T04:04:13.854Z,90.09
2019-02-11T04:06:43.667Z,90.36
2019-02-11T04:09:12.994Z,90.96
2019-02-11T04:11:42.396Z,91.15
2019-02-11T04:14:11.467Z,90.89
2019-02-11T04:16:40.671Z,90.19
2019-02-11T04:19:09.735Z,89.97
2019-02-11T04:21:38.748Z,90.15
2019-02-11T04:24:08.464Z,89.80
2019-02-11T04:26:37.564Z,89.47
2019-02-11T04:29:07.001Z,89.70
2019-02-11T04:31:36.378Z,89.10
2019-02-11T04:34:05.748Z,88.32
2019-02-11T04:36:34.773Z,88.42
2019-02-11T04:39:06.270Z,88.38
2019-02-11T04:41:35.289Z,88.74
2019-02-11T04:44:04.280Z,88.92
2019-02-11T04:46:33.314Z,89.02
2019-02-11T04:49:03.086Z,88.99
2019-02-11T04:51:32.638Z,89.02
2019-02-11T04:54:02.009Z,89.17
2019-02-11T04:56:31.042Z,89.06
2019-02-11T04:59:00.038Z,89.16
2019-02-11T05:01:29.141Z,89.09
2019-02-11T05:03:58.166Z,89.56
2019-02-11T05:06:27.326Z,89.29
2019-02-11T05:08:56.358Z,89.67
2019-02-11T05:11:25.384Z,89.70
2019-02-11T05:13:54.872Z,89.68
2019-02-11T05:16:23.993Z,89.97
2019-02-11T05:18:53.017Z,90.19
2019-02-11T05:21:22.986Z,89.96
2019-02-11T05:23:52.835Z,90.28
2019-02-11T05:26:22.889Z,90.00
2019-02-11T05:28:51.971Z,90.49
2019-02-11T05:31:21.230Z,90.84
2019-02-11T05:33:50.262Z,90.43
2019-02-11T05:36:19.408Z,90.84
2019-02-11T05:38:49.066Z,91.05
2019-02-11T05:41:18.067Z,90.98
2019-02-11T05:43:47.180Z,90.95
2019-02-11T05:46:16.235Z,91.64
2019-02-11T05:48:46.314Z,91.66
2019-02-11T05:51:15.340Z,91.50
2019-02-11T05:53:45.587Z,91.70
2019-02-11T05:56:15.128Z,91.97
2019-02-11T05:58:45.986Z,91.80
2019-02-11T06:01:15.811Z,91.85
2019-02-11T06:03:45.071Z,91.36
2019-02-11T06:06:14.349Z,91.61
2019-02-11T06:08:44.625Z,91.27
2019-02-11T06:11:14.073Z,91.06
2019-02-11T06:13:43.364Z,91.29
2019-02-11T06:16:12.570Z,91.29
2019-02-11T06:18:42.060Z,91.11
2019-02-11T06:21:11.521Z,91.33
2019-02-11T06:23:40.646Z,91.69
2019-02-11T06:26:09.639Z,92.08
2019-02-11T06:28:39.053Z,91.86
2019-02-11T06:31:08.116Z,92.22
2019-02-11T06:33:37.203Z,92.45
2019-02-11T06:36:12.303Z,92.89
2019-02-11T06:38:38.044Z,93.45
2019-02-11T06:41:07.091Z,93.62
2019-02-11T06:43:36.229Z,93.84
2019-02-11T06:46:05.638Z,93.89
2019-02-11T06:48:34.651Z,94.21
2019-02-11T06:51:03.979Z,94.31
2019-02-11T06:53:32.984Z,94.25
2019-02-11T06:56:02.353Z,94.60
2019-02-11T06:58:31.834Z,94.48
2019-02-11T07:01:01.150Z,94.44
2019-02-11T07:03:30.557Z,94.64
2019-02-11T07:05:59.980Z,94.57
2019-02-11T07:08:29.187Z,94.60
2019-02-11T07:10:58.262Z,94.48
2019-02-11T07:13:27.623Z,94.76
2019-02-11T07:15:56.659Z,95.16
2019-02-11T07:18:26.014Z,95.48
2019-02-11T07:20:55.019Z,95.36
2019-02-11T07:23:24.879Z,95.01
2019-02-11T07:25:53.890Z,94.75
2019-02-11T07:28:23.274Z,94.18
2019-02-11T07:30:52.281Z,94.03
2019-02-11T07:33:21.332Z,93.59
2019-02-11T07:35:50.380Z,93.09
2019-02-11T07:38:19.437Z,92.92
2019-02-11T07:40:48.853Z,92.86
2019-02-11T07:43:28.392Z,92.85
2019-02-11T07:46:07.872Z,93.08
2019-02-11T07:48:37.264Z,92.95
2019-02-11T07:51:06.278Z,92.65
2019-02-11T07:53:35.321Z,92.26
2019-02-11T07:56:04.314Z,91.71
2019-02-11T07:58:33.338Z,91.66
2019-02-11T08:01:02.708Z,91.21
2019-02-11T08:03:31.761Z,90.68
2019-02-11T08:06:00.790Z,90.57
2019-02-11T08:08:29.794Z,90.11
2019-02-11T08:10:59.134Z,89.66
2019-02-11T08:13:28.161Z,89.81
2019-02-11T08:15:57.189Z,89.76
2019-02-11T08:18:26.227Z,89.79
2019-02-11T08:20:55.241Z,90.11
2019-02-11T08:23:24.239Z,89.83
2019-02-11T08:25:53.541Z,89.94
2019-02-11T08:28:22.907Z,89.84
2019-02-11T08:30:52.298Z,89.91
2019-02-11T08:33:21.304Z,89.97
2019-02-11T08:35:50.392Z,89.42
2019-02-11T08:38:19.887Z,89.05
2019-02-11T08:40:48.961Z,89.37
2019-02-11T08:43:17.986Z,88.96
2019-02-11T08:45:47.442Z,88.48
2019-02-11T08:48:16.934Z,88.44
2019-02-11T08:50:45.967Z,87.83
2019-02-11T08:53:14.984Z,86.77
2019-02-11T08:55:43.990Z,86.40
2019-02-11T08:58:13.015Z,83.42
2019-02-11T09:00:42.034Z,79.41
2019-02-11T09:03:11.058Z,77.37
2019-02-11T09:05:40.134Z,74.69
2019-02-11T09:08:09.526Z,73.64
2019-02-11T09:10:38.810Z,71.19
2019-02-11T09:13:07.843Z,67.47
2019-02-11T09:15:37.372Z,66.62
2019-02-11T09:18:06.483Z,65.06
2019-02-11T09:20:35.526Z,62.58
2019-02-11T09:23:05.426Z,60.79
2019-02-11T09:25:34.479Z,57.83
2019-02-11T09:28:03.508Z,57.51
2019-02-11T09:30:32.536Z,59.02
2019-02-11T09:33:01.522Z,54.68
2019-02-11T09:35:30.555Z,55.12
2019-02-11T09:37:59.594Z,53.29
2019-02-11T09:40:28.603Z,55.80
2019-02-11T09:42:57.703Z,59.92
2019-02-11T09:45:26.987Z,62.32
2019-02-11T09:47:56.023Z,63.53
2019-02-11T09:50:31.295Z,63.37
2019-02-11T09:53:00.359Z,59.75
2019-02-11T09:55:31.147Z,53.96
2019-02-11T09:58:00.200Z,49.06
2019-02-11T10:00:29.733Z,46.61
2019-02-11T10:02:59.038Z,44.62
2019-02-11T10:05:28.088Z,46.01
2019-02-11T10:07:57.123Z,48.54
2019-02-11T10:10:26.150Z,51.36
2019-02-11T10:12:55.563Z,56.94
2019-02-11T10:15:24.676Z,59.07
2019-02-11T10:17:53.707Z,60.93
2019-02-11T10:20:22.773Z,62.32
2019-02-11T10:22:52.226Z,61.89
2019-02-11T10:25:23.509Z,65.12
2019-02-11T10:27:53.698Z,68.12
2019-02-11T10:30:22.715Z,67.24
2019-02-11T10:32:51.712Z,69.58
2019-02-11T10:35:21.082Z,72.29
2019-02-11T10:37:50.389Z,72.54
2019-02-11T10:40:19.431Z,73.41
2019-02-11T10:42:48.490Z,72.64
2019-02-11T10:45:17.870Z,73.87
2019-02-11T10:47:47.365Z,72.82
2019-02-11T10:50:17.373Z,72.82
2019-02-11T10:52:46.447Z,74.21
2019-02-11T10:55:16.193Z,74.40
2019-02-11T10:57:45.585Z,74.40
2019-02-11T11:00:20.014Z,73.51
2019-02-11T11:02:49.363Z,75.07
2019-02-11T11:05:18.449Z,74.60
2019-02-11T11:07:47.551Z,74.32
2019-02-11T11:10:26.105Z,74.71
2019-02-11T11:12:55.156Z,75.87
2019-02-11T11:15:24.361Z,74.61
2019-02-11T11:17:53.742Z,74.41
2019-02-11T11:20:23.139Z,75.23
2019-02-11T11:22:52.125Z,75.23
2019-02-11T11:25:21.188Z,74.50
2019-02-11T11:27:50.231Z,75.35
2019-02-11T11:30:20.247Z,75.14
2019-02-11T11:32:49.375Z,75.03
2019-02-11T11:35:18.669Z,76.65
2019-02-11T11:37:47.791Z,76.67
2019-02-11T11:40:17.601Z,77.47
2019-02-11T11:42:46.596Z,77.98
2019-02-11T11:45:17.012Z,78.33
2019-02-11T11:47:46.035Z,78.49
2019-02-11T11:50:16.373Z,77.43
2019-02-11T11:52:45.416Z,78.04
2019-02-11T11:55:15.599Z,70.45
2019-02-11T11:57:45.000Z,70.45
2019-02-11T12:00:20.581Z,66.90
2019-02-11T12:03:01.424Z,64.55
2019-02-11T12:05:20.682Z,61.95
2019-02-11T12:07:51.666Z,61.27
2019-02-11T12:10:20.710Z,58.13
2019-02-11T12:12:49.758Z,57.59
2019-02-11T12:15:20.828Z,57.65
2019-02-11T12:17:50.148Z,56.50
2019-02-11T12:20:19.235Z,50.92
2019-02-11T12:22:48.753Z,52.99
2019-02-11T12:25:18.021Z,53.57
2019-02-11T12:27:47.142Z,54.94
2019-02-11T12:30:18.566Z,57.40
2019-02-11T12:32:48.167Z,56.55
2019-02-11T12:35:17.199Z,57.32
2019-02-11T12:37:46.371Z,55.67
2019-02-11T12:40:15.695Z,56.93
2019-02-11T12:42:44.737Z,54.34
2019-02-11T12:45:19.060Z,53.12
2019-02-11T12:47:48.151Z,52.17
2019-02-11T12:50:17.738Z,51.37
2019-02-11T12:52:47.262Z,52.80
2019-02-11T12:55:16.693Z,53.97
2019-02-11T12:57:46.025Z,53.29
2019-02-11T13:00:17.901Z,54.79
2019-02-11T13:02:47.947Z,57.14
2019-02-11T13:05:21.955Z,57.04
2019-02-11T13:07:48.782Z,58.93
2019-02-11T13:10:18.456Z,61.86
2019-02-11T13:12:47.480Z,63.01
2019-02-11T13:15:42.029Z,65.27
2019-02-11T13:17:47.342Z,67.60
2019-02-11T13:20:16.552Z,65.68
2019-02-11T13:22:46.451Z,62.46
2019-02-11T13:25:16.424Z,61.09
2019-02-11T13:27:45.548Z,62.97
2019-02-11T13:30:17.051Z,61.85
2019-02-11T13:32:46.085Z,59.61
2019-02-11T13:35:15.179Z,57.03
2019-02-11T13:37:45.024Z,53.38
2019-02-11T13:40:15.024Z,52.18
2019-02-11T13:42:44.045Z,51.24
2019-02-11T13:45:15.077Z,51.57
2019-02-11T13:47:53.808Z,48.93
2019-02-11T13:50:18.195Z,50.40
2019-02-11T13:52:47.830Z,49.58
2019-02-11T13:55:17.167Z,48.33
2019-02-11T13:57:46.331Z,47.39
2019-02-11T14:00:22.363Z,48.76
2019-02-11T14:02:53.573Z,47.18
2019-02-11T14:05:22.847Z,45.79
2019-02-11T14:07:52.293Z,48.65
2019-02-11T14:10:21.320Z,51.77
2019-02-11T14:12:51.185Z,53.88
2019-02-11T14:15:21.565Z,57.43
2019-02-11T14:18:09.481Z,60.41
2019-02-11T14:20:25.845Z,60.08
2019-02-11T14:22:55.215Z,63.24
2019-02-11T14:25:40.741Z,63.50
2019-02-11T14:27:55.075Z,64.94
2019-02-11T14:30:24.523Z,65.89
2019-02-11T14:32:53.548Z,65.63
2019-02-11T14:35:23.012Z,67.63
2019-02-11T14:37:52.111Z,67.02
2019-02-11T14:40:21.210Z,65.96
2019-02-11T14:42:50.205Z,67.24
2019-02-11T14:45:19.292Z,67.45
2019-02-11T14:47:48.362Z,68.95
2019-02-11T14:50:17.389Z,69.80
2019-02-11T14:52:46.456Z,70.29
2019-02-11T14:55:15.895Z,70.50
2019-02-11T14:57:44.901Z,69.90
2019-02-11T15:00:18.292Z,70.13
2019-02-11T15:02:47.305Z,69.95
2019-02-11T15:05:16.751Z,71.95
2019-02-11T15:07:46.260Z,71.23
2019-02-11T15:10:15.842Z,71.74
2019-02-11T15:12:45.201Z,71.24
2019-02-11T15:15:14.472Z,71.87
2019-02-11T15:17:43.846Z,72.24
2019-02-11T15:20:14.277Z,72.99
2019-02-11T15:22:43.260Z,71.95
2019-02-11T15:25:14.030Z,73.61
2019-02-11T15:27:43.298Z,73.06
2019-02-11T15:30:17.507Z,73.36
2019-02-11T15:32:46.520Z,73.43
2019-02-11T15:35:15.960Z,73.69
2019-02-11T15:37:45.246Z,73.69
2019-02-11T15:40:17.120Z,75.31
2019-02-11T15:42:46.130Z,74.61
2019-02-11T15:45:15.500Z,75.89
2019-02-11T15:47:44.560Z,75.89
2019-02-11T15:50:14.281Z,74.97
2019-02-11T15:52:43.322Z,74.75
2019-02-11T15:55:14.861Z,74.75
2019-02-11T15:57:43.884Z,75.48
2019-02-11T16:00:15.400Z,74.27
2019-02-11T16:02:44.736Z,76.02
2019-02-11T16:05:16.746Z,75.21
2019-02-11T16:07:44.778Z,76.42
2019-02-11T16:10:15.648Z,76.29
2019-02-11T16:12:44.702Z,75.27
2019-02-11T16:15:13.880Z,76.70
2019-02-11T16:17:43.191Z,76.85
2019-02-11T16:20:14.335Z,76.86
2019-02-11T16:22:43.385Z,77.20
2019-02-11T16:25:12.630Z,77.88
2019-02-11T16:27:41.730Z,77.89
2019-02-11T16:30:14.174Z,78.59
2019-02-11T16:32:43.262Z,78.51
2019-02-11T16:35:12.979Z,80.23
2019-02-11T16:37:41.998Z,79.84
2019-02-11T16:40:19.771Z,78.13
2019-02-11T16:42:48.840Z,80.34
2019-02-11T16:45:17.846Z,78.73
2019-02-11T16:47:46.975Z,79.26
2019-02-11T16:50:16.011Z,80.34
2019-02-11T16:52:45.440Z,79.36
2019-02-11T16:55:14.634Z,79.54
2019-02-11T16:57:43.675Z,78.87
2019-02-11T17:00:14.206Z,80.17
2019-02-11T17:02:43.608Z,80.61
2019-02-11T17:05:12.737Z,80.67
2019-02-11T17:07:42.474Z,80.77
2019-02-11T17:10:12.663Z,80.92
2019-02-11T17:12:41.736Z,81.19
2019-02-11T17:15:12.858Z,81.82
2019-02-11T17:17:41.904Z,82.08
2019-02-11T17:20:11.572Z,83.35
2019-02-11T17:22:40.579Z,83.51
2019-02-11T17:25:10.232Z,83.46
2019-02-11T17:27:39.248Z,84.00
2019-02-11T17:30:11.361Z,84.19
2019-02-11T17:32:40.437Z,84.59
2019-02-11T17:35:09.859Z,85.18
2019-02-11T17:37:39.244Z,85.39
2019-02-11T17:40:09.394Z,85.31
2019-02-11T17:42:38.431Z,85.77
2019-02-11T17:45:10.169Z,85.86
2019-02-11T17:47:39.287Z,85.49
2019-02-11T17:50:09.386Z,85.61
2019-02-11T17:52:38.398Z,85.39
2019-02-11T17:55:09.114Z,85.22
2019-02-11T17:57:38.180Z,85.26
2019-02-11T18:00:11.710Z,85.19
2019-02-11T18:02:40.727Z,85.22
2019-02-11T18:05:09.793Z,85.31
2019-02-11T18:07:38.866Z,85.36
2019-02-11T18:10:08.227Z,85.44
2019-02-11T18:12:37.449Z,85.54
2019-02-11T18:15:07.744Z,85.50
2019-02-11T18:17:36.765Z,86.07
2019-02-11T18:20:06.212Z,86.26
2019-02-11T18:22:35.638Z,86.14
2019-02-11T18:25:05.324Z,86.22
2019-02-11T18:27:34.681Z,86.13
2019-02-11T18:30:05.841Z,86.07
2019-02-11T18:32:35.438Z,86.36
2019-02-11T18:35:05.500Z,86.95
2019-02-11T18:37:34.870Z,87.04
2019-02-11T18:40:04.192Z,87.08
2019-02-11T18:42:33.443Z,87.15
2019-02-11T18:45:02.864Z,87.75
2019-02-11T18:47:31.969Z,87.76
2019-02-11T18:50:01.030Z,88.00
2019-02-11T18:52:30.397Z,87.91
2019-02-11T18:54:59.475Z,87.96
2019-02-11T18:57:28.955Z,88.15
2019-02-11T18:59:58.036Z,88.37
2019-02-11T19:02:27.350Z,88.42
2019-02-11T19:04:56.364Z,88.50
2019-02-11T19:07:25.533Z,88.80
2019-02-11T19:09:55.167Z,89.11
2019-02-11T19:12:24.761Z,89.17
2019-02-11T19:14:54.162Z,89.39
2019-02-11T19:17:41.090Z,89.13
2019-02-11T19:20:11.844Z,89.57
2019-02-11T19:22:41.240Z,89.64
2019-02-11T19:25:11.706Z,89.90
2019-02-11T19:27:41.462Z,90.20
2019-02-11T19:30:16.512Z,90.10
2019-02-11T19:32:45.544Z,90.60
2019-02-11T19:35:15.358Z,90.44
2019-02-11T19:37:44.738Z,90.97
2019-02-11T19:40:14.653Z,90.60
2019-02-11T19:42:43.695Z,90.16
2019-02-11T19:45:14.640Z,90.46
2019-02-11T19:47:43.816Z,90.05
2019-02-11T19:50:14.411Z,90.12
2019-02-11T19:52:43.699Z,90.01
2019-02-11T19:55:13.182Z,90.34
2019-02-11T19:57:42.225Z,90.56
2019-02-11T20:00:15.531Z,90.10
2019-02-11T20:02:45.202Z,90.05
2019-02-11T20:05:14.520Z,90.59
2019-02-11T20:07:43.592Z,91.21
2019-02-11T20:10:13.257Z,91.37
2019-02-11T20:12:42.288Z,91.25
2019-02-11T20:15:13.588Z,90.80
2019-02-11T20:17:43.221Z,90.76
2019-02-11T20:20:14.006Z,90.63
2019-02-11T20:22:43.055Z,90.91
2019-02-11T20:25:13.563Z,91.04
2019-02-11T20:27:43.412Z,90.95
2019-02-11T20:30:14.595Z,91.38
2019-02-11T20:32:43.904Z,91.29
2019-02-11T20:35:13.310Z,91.43
2019-02-11T20:37:42.451Z,91.59
2019-02-11T20:40:13.663Z,91.85
2019-02-11T20:42:42.782Z,91.78
2019-02-11T20:45:14.362Z,92.14
2019-02-11T20:47:43.685Z,92.00
2019-02-11T20:50:12.988Z,92.08
2019-02-11T20:52:42.071Z,91.92
2019-02-11T20:55:12.139Z,92.46
2019-02-11T20:57:41.204Z,91.18
2019-02-11T21:00:16.919Z,91.32
2019-02-11T21:02:46.071Z,91.58
2019-02-11T21:05:15.770Z,92.57
2019-02-11T21:07:45.210Z,92.91
2019-02-11T21:10:15.156Z,92.49
2019-02-11T21:12:44.617Z,92.62
2019-02-11T21:15:14.299Z,92.04
2019-02-11T21:17:43.341Z,91.50
2019-02-11T21:20:18.506Z,92.15
2019-02-11T21:22:47.869Z,92.13
2019-02-11T21:25:16.978Z,92.51
2019-02-11T21:27:46.429Z,92.39
2019-02-11T21:30:15.824Z,92.65
2019-02-11T21:32:45.374Z,92.79
2019-02-11T21:35:14.671Z,92.76
2019-02-11T21:37:43.980Z,92.76
2019-02-11T21:40:13.434Z,93.16
2019-02-11T21:42:44.509Z,93.32
2019-02-11T21:45:13.904Z,93.47
2019-02-11T21:47:42.964Z,93.43
2019-02-11T21:50:13.277Z,93.31
2019-02-11T21:52:42.626Z,93.44
2019-02-11T21:55:12.607Z,93.48
2019-02-11T21:57:41.661Z,93.48
2019-02-11T22:00:13.091Z,93.18
2019-02-11T22:02:42.204Z,93.42
2019-02-11T22:05:11.250Z,93.04
2019-02-11T22:07:40.267Z,93.04
2019-02-11T22:10:11.146Z,93.22
2019-02-11T22:12:40.195Z,93.64
2019-02-11T22:15:10.033Z,93.66
2019-02-11T22:17:39.101Z,94.06
2019-02-11T22:20:11.671Z,94.31
2019-02-11T22:22:40.803Z,93.91
2019-02-11T22:25:10.425Z,93.19
2019-02-11T22:27:40.077Z,93.78
2019-02-11T22:30:12.414Z,93.90
2019-02-11T22:32:42.094Z,94.33
2019-02-11T22:35:11.569Z,94.24
2019-02-11T22:37:40.975Z,94.21
2019-02-11T22:40:11.111Z,94.05
2019-02-11T22:42:40.140Z,93.96
2019-02-11T22:45:11.314Z,93.90
2019-02-11T22:47:40.528Z,93.72
2019-02-11T22:50:10.386Z,93.95
2019-02-11T22:52:39.758Z,94.13
2019-02-11T22:55:10.716Z,93.93
2019-02-11T22:57:40.464Z,93.87
2019-02-11T23:00:20.620Z,93.76
2019-02-11T23:02:49.980Z,93.83
2019-02-11T23:05:19.034Z,94.25
2019-02-11T23:07:48.056Z,94.13
2019-02-11T23:10:17.464Z,94.00
2019-02-11T23:12:46.498Z,93.70
2019-02-11T23:15:15.590Z,94.13
2019-02-11T23:17:44.900Z,94.33
2019-02-11T23:20:14.228Z,94.29
2019-02-11T23:22:43.326Z,94.41
2019-02-11T23:25:12.311Z,94.29
2019-02-11T23:27:41.643Z,94.01
2019-02-11T23:30:13.446Z,94.16
2019-02-11T23:32:41.846Z,94.30
2019-02-11T23:35:11.184Z,94.26
2019-02-11T23:37:40.196Z,94.46
2019-02-11T23:40:09.905Z,94.84
2019-02-11T23:42:38.908Z,94.94
2019-02-11T23:45:08.462Z,94.60
2019-02-11T23:47:37.532Z,94.60
2019-02-11T23:50:06.723Z,94.68
2019-02-11T23:52:35.750Z,95.00
2019-02-11T23:55:05.262Z,94.85
2019-02-11T23:57:34.713Z,95.03
